Time;durP1;ratioP1;P1;durP2;ratioP2;P2;SDS_P1;SDS_P2;PMS_P1;PMS_P2;Temp;Humidity;BMP_temperature;BMP_pressure;BME280_temperature;BME280_humidity;BME280_pressure;Samples;Min_cycle;Max_cycle;Signal;HPM_P1;HPM_P2
2023/02/06 06:36:43;;;;;;;12.45;2.83;;;0.70;99.90;;;;;;5068262;28;20427;-63
2023/02/06 06:39:09;;;;;;;9.52;2.65;;;0.70;99.90;;;;;;5068599;28;20017;-63
2023/02/06 16:29:56;;;;;;;5.10;2.47;;;5.00;99.90;;;;;;5068649;28;20743;-64
2023/02/06 16:32:30;;;;;;;3.58;2.17;;;4.90;99.90;;;;;;5067558;28;20025;-66
2023/02/06 16:34:56;;;;;;;11.85;3.05;;;5.00;99.90;;;;;;5067913;28;20021;-68
2023/02/06 16:37:27;;;;;;;11.10;2.95;;;5.10;99.90;;;;;;5069025;28;20017;-66
2023/02/06 16:39:53;;;;;;;9.25;2.35;;;5.10;99.90;;;;;;5068461;28;20021;-62
2023/02/06 16:42:22;;;;;;;7.78;2.28;;;5.10;99.90;;;;;;5066718;28;20380;-67
2023/02/06 16:44:51;;;;;;;11.02;2.85;;;5.20;99.90;;;;;;5067391;28;20013;-65
2023/02/06 16:47:19;;;;;;;9.57;2.65;;;5.20;99.90;;;;;;5066684;28;20469;-64
2023/02/06 16:49:47;;;;;;;5.82;2.63;;;5.10;99.90;;;;;;5067638;28;20033;-63
2023/02/06 16:52:21;;;;;;;8.68;1.75;;;5.10;99.90;;;;;;5066240;28;20024;-63
2023/02/06 16:54:47;;;;;;;5.20;2.47;;;5.10;99.90;;;;;;5067800;28;20035;-63
2023/02/06 16:57:40;;;;;;;10.18;2.25;;;5.10;99.90;;;;;;5066163;28;20107;-64
2023/02/06 17:00:21;;;;;;;9.15;2.67;;;5.00;99.90;;;;;;5066944;28;20025;-67
2023/02/06 17:02:48;;;;;;;6.60;1.98;;;5.00;99.90;;;;;;5067304;28;20021;-69
2023/02/06 17:05:14;;;;;;;3.92;1.77;;;5.00;99.90;;;;;;5068284;28;20116;-71
2023/02/06 17:07:41;;;;;;;8.93;2.17;;;4.90;99.90;;;;;;5068051;28;20021;-70
2023/02/06 17:10:07;;;;;;;8.02;2.53;;;4.90;99.90;;;;;;5066294;28;20029;-69
2023/02/06 17:12:34;;;;;;;7.85;2.50;;;4.80;99.90;;;;;;5066811;28;20036;-71
2023/02/06 17:15:00;;;;;;;12.52;3.42;;;4.70;99.90;;;;;;5066282;28;20544;-66
2023/02/06 17:17:26;;;;;;;7.75;3.78;;;4.60;99.90;;;;;;5067615;28;20035;-72
2023/02/06 17:19:52;;;;;;;9.40;3.65;;;4.50;99.90;;;;;;5067670;28;20057;-70
2023/02/06 17:22:18;;;;;;;10.60;4.55;;;4.50;99.90;;;;;;5067939;28;20021;-70
2023/02/06 17:24:44;;;;;;;14.38;4.63;;;4.30;99.90;;;;;;5067188;28;20047;-67
2023/02/06 17:27:15;;;;;;;9.82;4.22;;;4.20;99.90;;;;;;5067907;28;20077;-69
2023/02/06 17:29:41;;;;;;;8.52;4.43;;;4.10;99.90;;;;;;5066566;28;20045;-75
2023/02/06 17:32:08;;;;;;;12.65;5.55;;;4.00;99.90;;;;;;5066663;28;20020;-64
2023/02/06 17:34:34;;;;;;;9.85;4.40;;;3.90;99.90;;;;;;5067086;28;20040;-69
2023/02/06 17:37:00;;;;;;;12.63;4.68;;;3.80;99.90;;;;;;5067352;28;20051;-68
2023/02/06 17:39:26;;;;;;;9.32;4.68;;;3.70;99.90;;;;;;5063757;28;20021;-68
2023/02/06 17:41:52;;;;;;;10.93;4.88;;;3.70;99.90;;;;;;5052779;28;20091;-66
2023/02/06 17:44:18;;;;;;;13.05;4.85;;;3.60;99.90;;;;;;5052966;28;20458;-69
2023/02/06 17:46:45;;;;;;;11.52;4.72;;;3.50;99.90;;;;;;5053191;28;20033;-70
2023/02/06 17:49:11;;;;;;;15.50;5.93;;;3.50;99.90;;;;;;5052446;28;20118;-67
2023/02/06 17:51:41;;;;;;;8.60;4.30;;;3.40;99.90;;;;;;5054001;28;20060;-68
2023/02/06 17:54:07;;;;;;;10.10;4.40;;;3.40;99.90;;;;;;5052593;28;20033;-65
2023/02/06 17:56:33;;;;;;;11.55;4.57;;;3.30;99.90;;;;;;5053699;28;20355;-70
2023/02/06 17:58:59;;;;;;;11.60;4.63;;;3.20;99.90;;;;;;5052792;28;20433;-64
2023/02/06 18:01:26;;;;;;;15.35;4.45;;;3.10;99.90;;;;;;5053240;28;20048;-68
2023/02/06 18:03:51;;;;;;;9.95;3.35;;;3.00;99.90;;;;;;5053438;28;20044;-64
2023/02/06 18:06:18;;;;;;;7.75;2.97;;;3.00;99.90;;;;;;5052672;28;20449;-67
2023/02/06 18:08:45;;;;;;;9.55;3.45;;;2.90;99.90;;;;;;5052322;28;20043;-68
2023/02/06 18:11:16;;;;;;;7.13;3.15;;;2.80;99.90;;;;;;5052306;28;20017;-67
2023/02/06 18:13:44;;;;;;;8.93;3.10;;;2.80;99.90;;;;;;5051687;28;20033;-68
2023/02/06 18:16:15;;;;;;;6.35;2.42;;;2.80;99.90;;;;;;5053227;28;20422;-65
2023/02/06 18:18:41;;;;;;;9.05;2.40;;;2.70;99.90;;;;;;5052725;28;20548;-70
2023/02/06 18:21:06;;;;;;;5.38;3.20;;;2.60;99.90;;;;;;5052580;28;20079;-65
2023/02/06 18:23:32;;;;;;;8.05;3.38;;;2.60;99.90;;;;;;5053195;28;20021;-64
2023/02/06 18:26:03;;;;;;;10.50;3.67;;;2.50;99.90;;;;;;5037294;28;20033;-71
2023/02/06 18:28:29;;;;;;;9.43;3.87;;;2.50;99.90;;;;;;5036569;28;20033;-74
2023/02/06 18:30:54;;;;;;;13.77;5.13;;;2.50;99.90;;;;;;5032216;28;20033;-78
2023/02/06 18:33:20;;;;;;;10.88;4.57;;;2.40;99.90;;;;;;5044965;28;20013;-73
2023/02/06 18:35:49;;;;;;;12.02;4.32;;;2.40;99.90;;;;;;5051302;28;20370;-67
2023/02/06 18:38:15;;;;;;;14.60;4.18;;;2.40;99.90;;;;;;5051822;28;20013;-67
2023/02/06 18:40:44;;;;;;;11.50;3.88;;;2.40;99.90;;;;;;5051932;28;20028;-68
2023/02/06 18:43:10;;;;;;;12.57;3.78;;;2.30;99.90;;;;;;5052056;28;20021;-67
2023/02/06 18:45:37;;;;;;;11.10;4.93;;;2.30;99.90;;;;;;5052683;28;20170;-69
2023/02/06 18:48:06;;;;;;;9.07;3.72;;;2.20;99.90;;;;;;5051869;28;20040;-64
2023/02/06 18:50:32;;;;;;;9.32;3.80;;;2.10;99.90;;;;;;5052586;28;20032;-66
2023/02/06 18:52:58;;;;;;;6.18;3.50;;;2.10;99.90;;;;;;5048951;28;20100;-68
2023/02/06 18:55:24;;;;;;;10.48;3.72;;;2.10;99.90;;;;;;5051269;28;20112;-70
2023/02/06 18:57:51;;;;;;;7.65;3.85;;;2.00;99.90;;;;;;5051687;28;20021;-64
2023/02/06 19:00:19;;;;;;;14.45;4.15;;;2.00;99.90;;;;;;5052452;28;20031;-66
2023/02/06 19:02:45;;;;;;;11.50;4.50;;;2.00;99.90;;;;;;5052208;28;20032;-64
2023/02/06 19:05:11;;;;;;;10.02;3.88;;;1.90;99.90;;;;;;5051355;28;20040;-64
2023/02/06 19:07:37;;;;;;;12.30;4.38;;;1.90;99.90;;;;;;5051100;28;20051;-68
2023/02/06 19:10:05;;;;;;;10.18;5.38;;;1.90;99.90;;;;;;5051561;28;20029;-65
2023/02/06 19:12:30;;;;;;;11.25;4.38;;;1.90;99.90;;;;;;5051372;28;21388;-63
2023/02/06 19:14:57;;;;;;;10.90;4.75;;;1.90;99.90;;;;;;5051752;28;20028;-64
2023/02/06 19:17:24;;;;;;;22.85;6.03;;;1.80;99.90;;;;;;5051349;28;20028;-70
2023/02/06 19:19:51;;;;;;;7.13;3.20;;;1.80;99.90;;;;;;5051133;28;20025;-63
2023/02/06 19:22:16;;;;;;;10.68;3.50;;;1.80;99.90;;;;;;5049933;28;20033;-66
2023/02/06 19:24:43;;;;;;;9.73;2.97;;;1.70;99.90;;;;;;5051402;28;20071;-65
2023/02/06 19:27:10;;;;;;;5.90;2.45;;;1.70;99.90;;;;;;5051730;28;20051;-69
2023/02/06 19:29:35;;;;;;;10.25;2.40;;;1.60;99.90;;;;;;5050785;28;20079;-67
2023/02/06 19:32:03;;;;;;;6.45;2.00;;;1.60;99.90;;;;;;5050369;28;20436;-69
2023/02/06 19:34:29;;;;;;;5.60;2.85;;;1.60;99.90;;;;;;5050653;28;20025;-62
2023/02/06 19:36:54;;;;;;;9.20;3.35;;;1.60;99.90;;;;;;5050714;28;20500;-72
2023/02/06 19:39:20;;;;;;;8.13;3.60;;;1.60;99.90;;;;;;5050387;28;20013;-71
